createdAt,value
2018-10-03T00:00:40.343Z,9.22
2018-10-03T00:01:48.981Z,9.31
2018-10-03T00:02:57.616Z,9.22
2018-10-03T00:04:06.254Z,9.22
2018-10-03T00:05:14.894Z,9.19
2018-10-03T00:06:23.542Z,9.21
2018-10-03T00:07:32.178Z,9.22
2018-10-03T00:08:41.089Z,9.19
2018-10-03T00:09:49.722Z,9.21
2018-10-03T00:10:58.366Z,9.16
2018-10-03T00:12:07.006Z,9.21
2018-10-03T00:13:15.657Z,9.22
2018-10-03T00:14:24.292Z,9.15
2018-10-03T00:15:32.935Z,9.13
2018-10-03T00:16:41.574Z,9.03
2018-10-03T00:17:50.215Z,9.02
2018-10-03T00:18:58.848Z,9.13
2018-10-03T00:20:07.490Z,9.08
2018-10-03T00:21:16.135Z,9.12
2018-10-03T00:22:24.776Z,9.11
2018-10-03T00:23:33.417Z,9.15
2018-10-03T00:24:42.318Z,9.11
2018-10-03T00:25:50.961Z,9.09
2018-10-03T00:26:59.594Z,9.13
2018-10-03T00:28:08.512Z,9.18
2018-10-03T00:29:17.146Z,9.21
2018-10-03T00:30:25.791Z,9.19
2018-10-03T00:31:34.425Z,9.18
2018-10-03T00:32:43.076Z,9.18
2018-10-03T00:33:51.704Z,9.26
2018-10-03T00:35:00.346Z,9.22
2018-10-03T00:36:08.998Z,9.13
2018-10-03T00:37:17.892Z,9.29
2018-10-03T00:38:26.532Z,9.31
2018-10-03T00:39:35.443Z,9.29
2018-10-03T00:40:44.087Z,9.33
2018-10-03T00:41:52.994Z,9.36
2018-10-03T00:43:01.622Z,9.34
2018-10-03T00:44:10.267Z,9.29
2018-10-03T00:45:18.895Z,9.48
2018-10-03T00:46:27.548Z,9.47
2018-10-03T00:47:36.177Z,9.47
2018-10-03T00:48:44.822Z,9.47
2018-10-03T00:49:53.456Z,9.44
2018-10-03T00:51:02.370Z,9.52
2018-10-03T00:52:11.000Z,9.58
2018-10-03T00:53:19.641Z,9.51
2018-10-03T00:54:28.285Z,9.56
2018-10-03T00:55:37.198Z,9.56
2018-10-03T00:56:45.837Z,9.59
2018-10-03T00:57:54.472Z,9.66
2018-10-03T00:59:03.116Z,9.59
2018-10-03T01:00:12.020Z,9.67
2018-10-03T01:01:20.669Z,9.63
2018-10-03T01:02:29.306Z,9.72
2018-10-03T01:03:38.217Z,9.76
2018-10-03T01:04:46.850Z,9.7
2018-10-03T01:05:55.501Z,9.8
2018-10-03T01:07:04.397Z,9.85
2018-10-03T01:08:13.307Z,9.88
2018-10-03T01:09:21.936Z,9.88
2018-10-03T01:10:30.582Z,10.03
2018-10-03T01:11:39.224Z,9.95
2018-10-03T01:12:48.125Z,9.9
2018-10-03T01:13:57.019Z,9.97
2018-10-03T01:15:05.660Z,9.95
2018-10-03T01:16:14.313Z,10.06
2018-10-03T01:17:22.954Z,10.1
2018-10-03T01:18:31.602Z,10.07
2018-10-03T01:19:40.230Z,10.06
2018-10-03T01:20:49.143Z,10.24
2018-10-03T01:21:57.779Z,10.21
2018-10-03T01:23:06.428Z,10.17
2018-10-03T01:24:15.060Z,10.18
2018-10-03T01:25:23.971Z,10.18
2018-10-03T01:26:32.607Z,10.25
2018-10-03T01:27:41.528Z,10.28
2018-10-03T01:28:50.160Z,10.23
2018-10-03T01:29:59.068Z,10.36
2018-10-03T01:31:07.977Z,10.38
2018-10-03T01:32:16.625Z,10.38
2018-10-03T01:33:25.265Z,10.33
2018-10-03T01:34:33.903Z,10.36
2018-10-03T01:35:42.806Z,10.31
2018-10-03T01:36:51.445Z,10.31
2018-10-03T01:38:00.087Z,10.36
2018-10-03T01:39:08.728Z,10.38
2018-10-03T01:40:17.367Z,10.34
2018-10-03T01:41:26.001Z,10.28
2018-10-03T01:42:34.646Z,10.33
2018-10-03T01:43:43.286Z,10.36
2018-10-03T01:44:51.926Z,10.31
2018-10-03T01:46:00.561Z,10.27
2018-10-03T01:47:09.206Z,10.2
2018-10-03T01:48:18.114Z,10.3
2018-10-03T01:49:27.022Z,10.2
2018-10-03T01:50:35.660Z,10.12
2018-10-03T01:51:45.095Z,10.07
2018-10-03T01:52:53.736Z,10.09
2018-10-03T01:54:02.376Z,10.07
2018-10-03T01:55:11.019Z,10.1
2018-10-03T01:56:19.656Z,10.07
2018-10-03T01:57:28.295Z,10.12
2018-10-03T01:58:36.935Z,10.09
2018-10-03T01:59:46.104Z,10.17
2018-10-03T02:00:54.739Z,10.1
2018-10-03T02:02:03.643Z,10.07
2018-10-03T02:03:12.282Z,10.13
2018-10-03T02:04:20.928Z,10.21
2018-10-03T02:05:29.564Z,10.2
2018-10-03T02:06:38.207Z,10.21
2018-10-03T02:07:47.112Z,10.17
2018-10-03T02:08:55.758Z,10.2
2018-10-03T02:10:04.394Z,10.2
2018-10-03T02:11:13.034Z,10.18
2018-10-03T02:12:21.938Z,10.23
2018-10-03T02:13:30.573Z,10.21
2018-10-03T02:14:39.271Z,10.18
2018-10-03T02:15:47.861Z,10.17
2018-10-03T02:16:56.508Z,10.23
2018-10-03T02:18:05.142Z,10.21
2018-10-03T02:19:13.785Z,10.2
2018-10-03T02:20:22.427Z,10.18
2018-10-03T02:21:31.066Z,10.3
2018-10-03T02:22:39.699Z,10.33
2018-10-03T02:23:48.342Z,10.3
2018-10-03T02:24:56.987Z,10.38
2018-10-03T02:26:05.630Z,10.42
2018-10-03T02:27:14.266Z,10.49
2018-10-03T02:28:22.909Z,10.46
2018-10-03T02:29:31.551Z,10.49
2018-10-03T02:30:40.198Z,10.51
2018-10-03T02:31:48.841Z,10.49
2018-10-03T02:32:57.738Z,10.55
2018-10-03T02:34:06.387Z,10.64
2018-10-03T02:35:15.298Z,10.68
2018-10-03T02:36:24.210Z,10.55
2018-10-03T02:37:33.132Z,10.57
2018-10-03T02:38:42.030Z,10.57
2018-10-03T02:39:50.932Z,10.55
2018-10-03T02:40:59.826Z,10.61
2018-10-03T02:42:08.474Z,10.49
2018-10-03T02:43:17.116Z,10.49
2018-10-03T02:44:26.051Z,10.43
2018-10-03T02:45:34.956Z,10.49
2018-10-03T02:46:43.601Z,10.45
2018-10-03T02:47:52.517Z,10.48
2018-10-03T02:49:01.946Z,10.45
2018-10-03T02:50:10.854Z,10.48
2018-10-03T02:51:19.484Z,10.43
2018-10-03T02:52:28.135Z,10.48
2018-10-03T02:53:37.030Z,10.33
2018-10-03T02:54:45.945Z,10.34
2018-10-03T02:55:54.582Z,10.36
2018-10-03T02:57:03.228Z,10.27
2018-10-03T02:58:11.865Z,10.25
2018-10-03T02:59:20.510Z,10.27
2018-10-03T03:00:29.413Z,10.34
2018-10-03T03:01:38.133Z,10.3
2018-10-03T03:02:46.954Z,10.21
2018-10-03T03:03:55.606Z,10.36
2018-10-03T03:05:04.775Z,10.41
2018-10-03T03:06:13.412Z,10.42
2018-10-03T03:07:22.053Z,10.42
2018-10-03T03:08:30.740Z,10.49
2018-10-03T03:09:39.337Z,10.45
2018-10-03T03:10:48.245Z,10.48
2018-10-03T03:11:57.428Z,10.49
2018-10-03T03:13:06.331Z,10.51
2018-10-03T03:14:14.984Z,10.58
2018-10-03T03:15:23.629Z,10.57
2018-10-03T03:16:32.278Z,10.51
2018-10-03T03:17:40.907Z,10.58
2018-10-03T03:18:49.561Z,10.64
2018-10-03T03:19:58.204Z,10.57
2018-10-03T03:21:06.848Z,10.71
2018-10-03T03:22:15.480Z,10.75
2018-10-03T03:23:24.122Z,10.69
2018-10-03T03:24:32.768Z,10.68
2018-10-03T03:25:41.679Z,10.65
2018-10-03T03:26:50.323Z,10.72
2018-10-03T03:27:58.961Z,10.67
2018-10-03T03:29:07.870Z,10.84
2018-10-03T03:30:17.046Z,10.84
2018-10-03T03:31:25.982Z,10.84
2018-10-03T03:32:35.145Z,10.84
2018-10-03T03:33:44.315Z,10.79
2018-10-03T03:34:52.967Z,10.8
2018-10-03T03:36:01.883Z,10.76
2018-10-03T03:37:10.515Z,10.84
2018-10-03T03:38:19.157Z,10.83
2018-10-03T03:39:28.073Z,10.84
2018-10-03T03:40:36.715Z,10.9
2018-10-03T03:41:45.352Z,10.89
2018-10-03T03:42:53.995Z,10.87
2018-10-03T03:44:02.899Z,10.84
2018-10-03T03:45:11.802Z,10.94
2018-10-03T03:46:20.447Z,10.95
2018-10-03T03:47:29.091Z,10.9
2018-10-03T03:48:38.009Z,10.86
2018-10-03T03:49:46.638Z,10.83
2018-10-03T03:50:55.552Z,10.87
2018-10-03T03:52:04.198Z,10.77
2018-10-03T03:53:12.836Z,10.72
2018-10-03T03:54:21.759Z,10.75
2018-10-03T03:55:30.682Z,10.79
2018-10-03T03:56:39.315Z,10.77
2018-10-03T03:57:48.220Z,10.79
2018-10-03T03:58:56.862Z,10.69
2018-10-03T04:00:05.508Z,10.77
2018-10-03T04:01:14.146Z,10.76
2018-10-03T04:02:23.327Z,10.84
2018-10-03T04:03:31.973Z,10.86
2018-10-03T04:04:40.609Z,10.86
2018-10-03T04:05:49.248Z,10.87
2018-10-03T04:06:58.221Z,10.87
2018-10-03T04:08:07.409Z,10.98
2018-10-03T04:09:16.045Z,10.95
2018-10-03T04:10:24.949Z,10.92
2018-10-03T04:11:33.854Z,10.92
2018-10-03T04:12:42.499Z,10.98
2018-10-03T04:13:51.131Z,10.97
2018-10-03T04:15:00.037Z,10.98
2018-10-03T04:16:08.730Z,11.01
2018-10-03T04:17:17.332Z,10.92
2018-10-03T04:18:25.976Z,10.97
2018-10-03T04:19:34.886Z,10.92
2018-10-03T04:20:43.791Z,10.98
2018-10-03T04:21:52.434Z,10.87
2018-10-03T04:23:01.080Z,10.94
2018-10-03T04:24:09.720Z,10.92
2018-10-03T04:25:18.625Z,10.9
2018-10-03T04:26:27.262Z,10.87
2018-10-03T04:27:35.910Z,10.86
2018-10-03T04:28:45.080Z,10.84
2018-10-03T04:29:53.725Z,10.75
2018-10-03T04:31:02.368Z,10.82
2018-10-03T04:32:11.001Z,10.86
2018-10-03T04:33:19.647Z,10.77
2018-10-03T04:34:28.287Z,10.79
2018-10-03T04:35:36.982Z,10.72
2018-10-03T04:36:45.839Z,10.71
2018-10-03T04:37:54.479Z,10.58
2018-10-03T04:39:03.115Z,10.61
2018-10-03T04:40:11.756Z,10.48
2018-10-03T04:41:20.404Z,10.46
2018-10-03T04:42:29.458Z,10.42
2018-10-03T04:43:38.098Z,10.39
2018-10-03T04:44:46.734Z,10.49
2018-10-03T04:45:55.380Z,10.45
2018-10-03T04:47:04.288Z,10.36
2018-10-03T04:48:12.930Z,10.31
2018-10-03T04:49:21.824Z,10.3
2018-10-03T04:50:30.736Z,10.31
2018-10-03T04:51:39.375Z,10.3
2018-10-03T04:52:48.018Z,10.25
2018-10-03T04:53:56.653Z,10.27
2018-10-03T04:55:05.556Z,10.12
2018-10-03T04:56:14.195Z,10.21
2018-10-03T04:57:22.837Z,10.21
2018-10-03T04:58:31.481Z,10.23
2018-10-03T04:59:40.383Z,10.2
2018-10-03T05:00:49.024Z,10.06
2018-10-03T05:01:57.665Z,10.07
2018-10-03T05:03:06.572Z,10.03
2018-10-03T05:04:15.209Z,10.03
2018-10-03T05:05:23.860Z,9.91
2018-10-03T05:06:32.770Z,9.92
2018-10-03T05:07:41.412Z,10
2018-10-03T05:08:50.047Z,9.91
2018-10-03T05:09:58.691Z,9.99
2018-10-03T05:11:07.389Z,9.97
2018-10-03T05:12:15.971Z,9.99
2018-10-03T05:13:24.612Z,9.99
2018-10-03T05:14:33.523Z,10.05
2018-10-03T05:15:42.423Z,9.94
2018-10-03T05:16:51.060Z,9.95
2018-10-03T05:17:59.702Z,9.91
2018-10-03T05:19:08.344Z,10.02
2018-10-03T05:20:16.985Z,9.88
2018-10-03T05:21:25.620Z,9.97
2018-10-03T05:22:34.267Z,10.03
2018-10-03T05:23:43.433Z,10.02
2018-10-03T05:24:52.071Z,10.05
2018-10-03T05:26:00.707Z,9.95
2018-10-03T05:27:09.351Z,9.94
2018-10-03T05:28:18.247Z,9.97
2018-10-03T05:29:27.154Z,9.95
2018-10-03T05:30:35.787Z,9.99
2018-10-03T05:31:44.427Z,10.02
2018-10-03T05:32:53.346Z,9.95
2018-10-03T05:34:01.982Z,9.87
2018-10-03T05:35:10.898Z,9.91
2018-10-03T05:36:19.792Z,9.88
2018-10-03T05:37:28.434Z,9.84
2018-10-03T05:38:37.071Z,9.84
2018-10-03T05:39:46.229Z,9.82
2018-10-03T05:40:54.778Z,9.76
2018-10-03T05:42:03.422Z,9.77
2018-10-03T05:43:12.061Z,9.76
2018-10-03T05:44:20.717Z,9.82
2018-10-03T05:45:29.615Z,9.73
2018-10-03T05:46:38.253Z,9.67
2018-10-03T05:47:46.897Z,9.66
2018-10-03T05:48:55.886Z,9.64
2018-10-03T05:50:04.451Z,9.63
2018-10-03T05:51:13.086Z,9.64
2018-10-03T05:52:21.728Z,9.69
2018-10-03T05:53:30.368Z,9.59
2018-10-03T05:54:39.038Z,9.63
2018-10-03T05:55:47.997Z,9.64
2018-10-03T05:56:56.904Z,9.62
2018-10-03T05:58:05.536Z,9.59
2018-10-03T05:59:14.185Z,9.62
2018-10-03T06:00:22.819Z,9.58
2018-10-03T06:01:31.466Z,9.64
2018-10-03T06:02:40.140Z,9.62
2018-10-03T06:03:48.747Z,9.66
2018-10-03T06:04:57.387Z,9.77
2018-10-03T06:06:06.025Z,9.84
2018-10-03T06:07:14.654Z,9.88
2018-10-03T06:08:23.298Z,9.87
2018-10-03T06:09:32.208Z,9.99
2018-10-03T06:10:40.848Z,10.07
2018-10-03T06:11:49.495Z,9.97
2018-10-03T06:12:58.391Z,10.02
2018-10-03T06:14:07.301Z,10.1
2018-10-03T06:15:15.939Z,10.1
2018-10-03T06:16:24.587Z,10.23
2018-10-03T06:17:33.749Z,10.18
2018-10-03T06:18:42.515Z,10.17
2018-10-03T06:19:51.034Z,10.27
2018-10-03T06:20:59.680Z,10.2
2018-10-03T06:22:08.320Z,10.25
2018-10-03T06:23:17.223Z,10.3
2018-10-03T06:24:25.861Z,10.25
2018-10-03T06:25:34.511Z,10.28
2018-10-03T06:26:43.413Z,10.31
2018-10-03T06:27:52.146Z,10.41
2018-10-03T06:29:01.074Z,10.46
2018-10-03T06:30:09.720Z,10.57
2018-10-03T06:31:18.369Z,10.49
2018-10-03T06:32:27.008Z,10.62
2018-10-03T06:33:35.971Z,10.71
2018-10-03T06:34:44.550Z,10.71
2018-10-03T06:35:53.460Z,10.71
2018-10-03T06:37:02.099Z,10.71
2018-10-03T06:38:11.002Z,10.76
2018-10-03T06:39:19.695Z,10.83
2018-10-03T06:40:28.698Z,10.84
2018-10-03T06:41:37.521Z,10.82
2018-10-03T06:42:46.158Z,10.86
2018-10-03T06:43:54.795Z,11
2018-10-03T06:45:03.440Z,10.98
2018-10-03T06:46:12.351Z,11.01
2018-10-03T06:47:20.997Z,10.97
2018-10-03T06:48:29.904Z,11.08
2018-10-03T06:49:38.539Z,11.02
2018-10-03T06:50:47.713Z,11
2018-10-03T06:51:56.361Z,11.12
2018-10-03T06:53:04.999Z,11.1
2018-10-03T06:54:13.635Z,11.07
2018-10-03T06:55:22.277Z,11.12
2018-10-03T06:56:30.919Z,11.1
2018-10-03T06:57:39.569Z,11.22
2018-10-03T06:58:48.205Z,11.18
2018-10-03T06:59:56.849Z,11.19
2018-10-03T07:01:05.486Z,11.22
2018-10-03T07:02:14.132Z,11.33
2018-10-03T07:03:22.771Z,11.3
2018-10-03T07:04:31.411Z,11.27
2018-10-03T07:05:40.109Z,11.31
2018-10-03T07:06:48.694Z,11.34
2018-10-03T07:07:57.604Z,11.38
2018-10-03T07:09:06.526Z,11.37
2018-10-03T07:10:15.694Z,11.35
2018-10-03T07:11:24.863Z,11.44
2018-10-03T07:12:33.507Z,11.55
2018-10-03T07:13:42.148Z,11.53
2018-10-03T07:14:50.788Z,11.62
2018-10-03T07:15:59.426Z,11.65
2018-10-03T07:17:08.342Z,11.7
2018-10-03T07:18:16.982Z,11.74
2018-10-03T07:19:25.888Z,11.71
2018-10-03T07:20:34.526Z,11.71
2018-10-03T07:21:43.170Z,11.77
2018-10-03T07:22:51.811Z,11.76
2018-10-03T07:24:00.454Z,11.83
2018-10-03T07:25:09.099Z,11.83
2018-10-03T07:26:17.821Z,11.83
2018-10-03T07:27:26.382Z,11.89
2018-10-03T07:28:35.020Z,11.88
2018-10-03T07:29:43.670Z,11.95
2018-10-03T07:30:52.566Z,12
2018-10-03T07:32:01.475Z,11.95
2018-10-03T07:33:10.112Z,11.99
2018-10-03T07:34:18.767Z,12.08
2018-10-03T07:35:27.396Z,12.07
2018-10-03T07:36:36.042Z,12.11
2018-10-03T07:37:44.681Z,12.05
2018-10-03T07:38:53.333Z,12.14
2018-10-03T07:40:01.973Z,12.21
2018-10-03T07:41:10.607Z,12.23
2018-10-03T07:42:19.246Z,12.2
2018-10-03T07:43:27.883Z,12.18
2018-10-03T07:44:36.534Z,12.29
2018-10-03T07:45:45.437Z,12.33
2018-10-03T07:46:54.081Z,12.23
2018-10-03T07:48:02.763Z,12.37
2018-10-03T07:49:11.731Z,12.43
2018-10-03T07:50:20.367Z,12.5
2018-10-03T07:51:29.014Z,12.51
2018-10-03T07:52:37.914Z,12.58
2018-10-03T07:53:46.955Z,12.54
2018-10-03T07:54:55.595Z,12.5
2018-10-03T07:56:04.600Z,12.48
2018-10-03T07:57:13.174Z,12.63
2018-10-03T07:58:21.818Z,12.66
2018-10-03T07:59:30.729Z,12.69
2018-10-03T08:00:39.372Z,12.73
2018-10-03T08:01:48.280Z,12.73
2018-10-03T08:02:56.912Z,12.73
2018-10-03T08:04:05.561Z,12.78
2018-10-03T08:05:14.469Z,12.7
2018-10-03T08:06:23.122Z,12.76
2018-10-03T08:07:32.021Z,12.76
2018-10-03T08:08:40.669Z,12.81
2018-10-03T08:09:49.595Z,12.78
2018-10-03T08:10:58.223Z,12.76
2018-10-03T08:12:07.121Z,12.73
2018-10-03T08:13:15.765Z,12.76
2018-10-03T08:14:24.406Z,12.68
2018-10-03T08:15:33.055Z,12.72
2018-10-03T08:16:42.488Z,12.66
2018-10-03T08:17:51.384Z,12.7
2018-10-03T08:19:00.025Z,12.57
2018-10-03T08:20:08.662Z,12.65
2018-10-03T08:21:17.310Z,12.61
2018-10-03T08:22:25.948Z,12.57
2018-10-03T08:23:34.594Z,12.55
2018-10-03T08:24:43.281Z,12.62
2018-10-03T08:25:51.873Z,12.57
2018-10-03T08:27:00.524Z,12.58
2018-10-03T08:28:09.420Z,12.65
2018-10-03T08:29:18.071Z,12.58
2018-10-03T08:30:26.700Z,12.57
2018-10-03T08:31:35.608Z,12.54
2018-10-03T08:32:44.403Z,12.51
2018-10-03T08:33:53.169Z,12.57
2018-10-03T08:35:02.073Z,12.66
2018-10-03T08:36:10.711Z,12.61
2018-10-03T08:37:19.351Z,12.69
2018-10-03T08:38:28.004Z,12.63
2018-10-03T08:39:36.922Z,12.68
2018-10-03T08:40:45.557Z,12.65
2018-10-03T08:41:54.206Z,12.66
2018-10-03T08:43:02.837Z,12.81
2018-10-03T08:44:11.500Z,12.81
2018-10-03T08:45:20.134Z,12.8
2018-10-03T08:46:29.354Z,12.76
2018-10-03T08:47:37.988Z,12.83
2018-10-03T08:48:46.643Z,12.84
2018-10-03T08:49:55.804Z,12.86
2018-10-03T08:51:04.448Z,12.94
2018-10-03T08:52:13.081Z,12.99
2018-10-03T08:53:21.724Z,13.08
2018-10-03T08:54:30.372Z,13.03
2018-10-03T08:55:39.016Z,13.11
2018-10-03T08:56:47.661Z,13.17
2018-10-03T08:57:56.333Z,13.16
2018-10-03T08:59:05.296Z,13.16
2018-10-03T09:00:14.208Z,13.24
2018-10-03T09:01:23.119Z,13.31
2018-10-03T09:02:31.754Z,13.31
2018-10-03T09:03:40.404Z,13.31
2018-10-03T09:04:49.309Z,13.36
2018-10-03T09:05:57.956Z,13.33
2018-10-03T09:07:06.855Z,13.4
2018-10-03T09:08:15.497Z,13.27
2018-10-03T09:09:24.145Z,13.33
2018-10-03T09:10:32.799Z,13.33
2018-10-03T09:11:41.478Z,13.33
2018-10-03T09:12:50.080Z,13.36
2018-10-03T09:13:58.720Z,13.36
2018-10-03T09:15:07.620Z,13.39
2018-10-03T09:16:16.541Z,13.46
2018-10-03T09:17:25.186Z,13.5
2018-10-03T09:18:34.088Z,13.47
2018-10-03T09:19:42.721Z,13.6
2018-10-03T09:20:51.385Z,13.57
2018-10-03T09:22:00.282Z,13.58
2018-10-03T09:23:08.930Z,13.54
2018-10-03T09:24:17.837Z,13.7
2018-10-03T09:25:26.486Z,13.71
2018-10-03T09:26:35.125Z,13.7
2018-10-03T09:27:43.771Z,13.78
2018-10-03T09:28:52.419Z,13.82
2018-10-03T09:30:01.058Z,13.76
2018-10-03T09:31:09.701Z,13.79
2018-10-03T09:32:18.345Z,13.8
2018-10-03T09:33:26.995Z,13.85
2018-10-03T09:34:35.630Z,13.85
2018-10-03T09:35:44.273Z,13.91
2018-10-03T09:36:52.917Z,13.83
2018-10-03T09:38:01.564Z,13.87
2018-10-03T09:39:10.203Z,13.94
2018-10-03T09:40:18.847Z,13.89
2018-10-03T09:41:27.754Z,13.91
2018-10-03T09:42:36.403Z,14
2018-10-03T09:43:45.083Z,13.94
2018-10-03T09:44:54.087Z,13.98
2018-10-03T09:46:02.726Z,13.95
2018-10-03T09:47:11.373Z,13.95
2018-10-03T09:48:20.015Z,13.91
2018-10-03T09:49:28.656Z,13.89
2018-10-03T09:50:37.296Z,13.98
2018-10-03T09:51:45.938Z,13.98
2018-10-03T09:52:54.585Z,14.01
2018-10-03T09:54:03.493Z,14.07
2018-10-03T09:55:12.147Z,14.08
2018-10-03T09:56:21.048Z,14
2018-10-03T09:57:29.963Z,14.13
2018-10-03T09:58:38.609Z,14.15
2018-10-03T09:59:47.254Z,14.04
2018-10-03T10:00:56.000Z,14.07
2018-10-03T10:02:04.542Z,14.07
2018-10-03T10:03:13.185Z,14.07
2018-10-03T10:04:21.830Z,14.16
2018-10-03T10:05:30.469Z,14.2
2018-10-03T10:06:39.116Z,14.25
2018-10-03T10:07:47.758Z,14.23
2018-10-03T10:08:56.404Z,14.25
2018-10-03T10:10:05.065Z,14.4
2018-10-03T10:11:14.045Z,14.43
2018-10-03T10:12:22.634Z,14.41
2018-10-03T10:13:31.280Z,14.38
2018-10-03T10:14:39.928Z,14.41
2018-10-03T10:15:48.568Z,14.43
2018-10-03T10:16:57.212Z,14.45
2018-10-03T10:18:05.857Z,14.45
2018-10-03T10:19:14.504Z,14.41
2018-10-03T10:20:23.145Z,14.43
2018-10-03T10:21:31.787Z,14.43
2018-10-03T10:22:40.433Z,14.43
2018-10-03T10:23:49.077Z,14.45
2018-10-03T10:24:57.718Z,14.38
2018-10-03T10:26:06.375Z,14.43
2018-10-03T10:27:15.018Z,14.44
2018-10-03T10:28:23.923Z,14.56
2018-10-03T10:29:32.837Z,14.49
2018-10-03T10:30:41.482Z,14.61
2018-10-03T10:31:50.403Z,14.66
2018-10-03T10:32:59.146Z,14.62
2018-10-03T10:34:07.675Z,14.63
2018-10-03T10:35:16.317Z,14.78
2018-10-03T10:36:24.960Z,14.74
2018-10-03T10:37:33.629Z,14.79
2018-10-03T10:38:42.255Z,14.73
2018-10-03T10:39:51.161Z,14.81
2018-10-03T10:40:59.839Z,14.82
2018-10-03T10:42:08.459Z,14.81
2018-10-03T10:43:17.220Z,14.79
2018-10-03T10:44:26.158Z,14.89
2018-10-03T10:45:34.810Z,14.89
2018-10-03T10:46:43.927Z,14.85
2018-10-03T10:47:52.850Z,14.9
2018-10-03T10:49:01.506Z,14.89
2018-10-03T10:50:10.214Z,15.04
2018-10-03T10:51:18.799Z,14.93
2018-10-03T10:52:27.441Z,15
2018-10-03T10:53:36.085Z,14.99
2018-10-03T10:54:44.994Z,15
2018-10-03T10:55:53.642Z,15.08
2018-10-03T10:57:02.281Z,14.99
2018-10-03T10:58:10.927Z,15
2018-10-03T10:59:19.569Z,14.89
2018-10-03T11:00:28.219Z,14.85
2018-10-03T11:01:36.860Z,14.87
2018-10-03T11:02:45.503Z,14.86
2018-10-03T11:03:54.145Z,14.9
2018-10-03T11:05:02.788Z,14.81
2018-10-03T11:06:11.786Z,14.79
2018-10-03T11:07:20.348Z,14.93
2018-10-03T11:08:29.256Z,14.92
2018-10-03T11:09:37.894Z,14.93
2018-10-03T11:10:46.543Z,15.05
2018-10-03T11:11:55.193Z,15.05
2018-10-03T11:13:03.840Z,15.18
2018-10-03T11:14:12.478Z,15.17
2018-10-03T11:15:21.130Z,15.26
2018-10-03T11:16:29.772Z,15.35
2018-10-03T11:17:38.418Z,15.45
2018-10-03T11:18:47.060Z,15.43
2018-10-03T11:19:55.704Z,15.35
2018-10-03T11:21:04.347Z,15.29
2018-10-03T11:22:12.997Z,15.15
2018-10-03T11:23:21.662Z,15.18
2018-10-03T11:24:31.000Z,15.12
2018-10-03T11:25:39.525Z,14.96
2018-10-03T11:26:48.168Z,14.93
2018-10-03T11:27:56.822Z,14.85
2018-10-03T11:29:05.455Z,14.93
2018-10-03T11:30:14.107Z,14.92
2018-10-03T11:31:23.007Z,14.86
2018-10-03T11:32:31.918Z,14.86
2018-10-03T11:33:40.552Z,14.93
2018-10-03T11:34:49.201Z,15.08
2018-10-03T11:35:57.842Z,15
2018-10-03T11:37:06.495Z,15.15
2018-10-03T11:38:15.197Z,15.04
2018-10-03T11:39:23.781Z,15.08
2018-10-03T11:40:32.423Z,15.12
2018-10-03T11:41:41.066Z,15.15
2018-10-03T11:42:50.259Z,15.17
2018-10-03T11:43:59.643Z,15.15
2018-10-03T11:45:08.206Z,15.05
2018-10-03T11:46:16.841Z,15.1
2018-10-03T11:47:25.500Z,15
2018-10-03T11:48:34.405Z,15.04
2018-10-03T11:49:43.050Z,14.99
2018-10-03T11:50:51.684Z,14.99
2018-10-03T11:52:00.337Z,15.04
2018-10-03T11:53:09.242Z,15.17
2018-10-03T11:54:17.892Z,15.17
2018-10-03T11:55:26.524Z,15.18
2018-10-03T11:56:35.171Z,15.17
2018-10-03T11:57:43.825Z,15.27
2018-10-03T11:58:52.481Z,15.27
2018-10-03T12:00:01.113Z,15.29
2018-10-03T12:01:10.009Z,15.23
2018-10-03T12:02:18.658Z,15.25
2018-10-03T12:03:27.457Z,15.18
2018-10-03T12:04:35.955Z,15.17
2018-10-03T12:05:44.589Z,15.18
2018-10-03T12:06:53.239Z,15.14
2018-10-03T12:08:02.144Z,15.18
2018-10-03T12:09:10.819Z,15.14
2018-10-03T12:10:19.439Z,15.15
2018-10-03T12:11:28.356Z,15.02
2018-10-03T12:12:37.275Z,15.18
2018-10-03T12:13:46.251Z,15.17
2018-10-03T12:14:55.242Z,15.1
2018-10-03T12:16:03.881Z,15.18
2018-10-03T12:17:12.523Z,15.26
2018-10-03T12:18:21.165Z,15.32
2018-10-03T12:19:29.818Z,15.33
2018-10-03T12:20:38.990Z,15.44
2018-10-03T12:21:47.889Z,15.45
2018-10-03T12:22:56.543Z,15.41
2018-10-03T12:24:05.177Z,15.48
2018-10-03T12:25:13.858Z,15.52
2018-10-03T12:26:22.931Z,15.69
2018-10-03T12:27:31.851Z,15.78
2018-10-03T12:28:40.486Z,15.88
2018-10-03T12:29:49.135Z,15.98
2018-10-03T12:30:57.777Z,16.05
2018-10-03T12:32:06.432Z,16.1
2018-10-03T12:33:15.125Z,16.16
2018-10-03T12:34:23.717Z,16.18
2018-10-03T12:35:32.365Z,16.18
2018-10-03T12:36:41.267Z,16.22
2018-10-03T12:37:49.926Z,16.13
2018-10-03T12:38:58.566Z,16.16
2018-10-03T12:40:07.217Z,16.16
2018-10-03T12:41:16.112Z,16.22
2018-10-03T12:42:25.031Z,16.17
2018-10-03T12:43:33.674Z,16.16
2018-10-03T12:44:42.586Z,16.28
2018-10-03T12:45:51.222Z,16.25
2018-10-03T12:46:59.874Z,16.26
2018-10-03T12:48:08.516Z,16.12
2018-10-03T12:49:17.162Z,15.98
2018-10-03T12:50:25.801Z,15.87
2018-10-03T12:51:34.816Z,15.78
2018-10-03T12:52:43.465Z,15.67
2018-10-03T12:53:52.118Z,15.62
2018-10-03T12:55:01.033Z,15.51
2018-10-03T12:56:09.948Z,15.54
2018-10-03T12:57:18.859Z,15.41
2018-10-03T12:58:27.496Z,15.19
2018-10-03T12:59:36.150Z,15.12
2018-10-03T13:00:44.785Z,15.18
2018-10-03T13:01:53.700Z,15.12
2018-10-03T13:03:02.602Z,15.04
2018-10-03T13:04:11.254Z,15
2018-10-03T13:05:20.152Z,14.89
2018-10-03T13:06:28.802Z,14.9
2018-10-03T13:07:37.713Z,14.89
2018-10-03T13:08:46.633Z,14.86
2018-10-03T13:09:55.536Z,14.87
2018-10-03T13:11:04.439Z,14.99
2018-10-03T13:12:13.078Z,15
2018-10-03T13:13:21.721Z,14.97
2018-10-03T13:14:30.647Z,15.02
2018-10-03T13:15:39.811Z,15.04
2018-10-03T13:16:48.461Z,14.97
2018-10-03T13:17:57.097Z,14.9
2018-10-03T13:19:05.751Z,14.94
2018-10-03T13:20:14.652Z,14.93
2018-10-03T13:21:23.297Z,14.89
2018-10-03T13:22:31.938Z,14.92
2018-10-03T13:23:40.855Z,14.82
2018-10-03T13:24:49.492Z,14.86
2018-10-03T13:25:58.138Z,14.63
2018-10-03T13:27:06.780Z,14.78
2018-10-03T13:28:15.429Z,14.71
2018-10-03T13:29:24.072Z,14.9
2018-10-03T13:30:32.800Z,14.89
2018-10-03T13:31:41.366Z,14.89
2018-10-03T13:32:50.003Z,15.11
2018-10-03T13:33:58.654Z,15.12
2018-10-03T13:35:07.828Z,15.27
2018-10-03T13:36:16.477Z,15.52
2018-10-03T13:37:25.119Z,15.52
2018-10-03T13:38:34.027Z,15.66
2018-10-03T13:39:42.671Z,15.67
2018-10-03T13:40:51.410Z,15.85
2018-10-03T13:41:59.961Z,15.88
2018-10-03T13:43:08.610Z,15.81
2018-10-03T13:44:17.254Z,15.88
2018-10-03T13:45:26.173Z,15.83
2018-10-03T13:46:34.827Z,15.87
2018-10-03T13:47:43.457Z,15.9
2018-10-03T13:48:52.378Z,15.81
2018-10-03T13:50:01.021Z,15.73
2018-10-03T13:51:09.672Z,15.8
2018-10-03T13:52:18.317Z,15.8
2018-10-03T13:53:26.964Z,15.62
2018-10-03T13:54:35.601Z,15.62
2018-10-03T13:55:44.255Z,15.51
2018-10-03T13:56:52.908Z,15.51
2018-10-03T13:58:02.074Z,15.6
2018-10-03T13:59:10.718Z,15.57
2018-10-03T14:00:19.631Z,15.52
2018-10-03T14:01:28.532Z,15.63
2018-10-03T14:02:37.178Z,15.54
2018-10-03T14:03:45.824Z,15.51
2018-10-03T14:04:54.471Z,15.52
2018-10-03T14:06:03.382Z,15.52
2018-10-03T14:07:12.025Z,15.59
2018-10-03T14:08:20.671Z,15.41
2018-10-03T14:09:29.310Z,15.45
2018-10-03T14:10:37.953Z,15.41
2018-10-03T14:11:46.598Z,15.44
2018-10-03T14:12:55.516Z,15.44
2018-10-03T14:14:04.153Z,15.43
2018-10-03T14:15:12.801Z,15.39
2018-10-03T14:16:21.445Z,15.44
2018-10-03T14:17:30.097Z,15.43
2018-10-03T14:18:39.116Z,15.48
2018-10-03T14:19:47.729Z,15.37
2018-10-03T14:20:56.370Z,15.29
2018-10-03T14:22:05.024Z,15.27
2018-10-03T14:23:13.664Z,15.32
2018-10-03T14:24:22.347Z,15.12
2018-10-03T14:25:31.358Z,15.12
2018-10-03T14:26:39.994Z,15.05
2018-10-03T14:27:48.646Z,14.97
2018-10-03T14:28:57.288Z,14.94
2018-10-03T14:30:05.936Z,14.96
2018-10-03T14:31:14.571Z,14.94
2018-10-03T14:32:23.231Z,14.86
2018-10-03T14:33:32.132Z,14.73
2018-10-03T14:34:40.780Z,14.62
2018-10-03T14:35:49.684Z,14.61
2018-10-03T14:36:58.335Z,14.58
2018-10-03T14:38:06.977Z,14.53
2018-10-03T14:39:15.622Z,14.51
2018-10-03T14:40:24.256Z,14.45
2018-10-03T14:41:32.901Z,14.4
2018-10-03T14:42:41.549Z,14.4
2018-10-03T14:43:50.197Z,14.43
2018-10-03T14:44:58.843Z,14.34
2018-10-03T14:46:07.480Z,14.4
2018-10-03T14:47:16.138Z,14.33
2018-10-03T14:48:25.298Z,14.37
2018-10-03T14:49:34.212Z,14.37
2018-10-03T14:50:42.848Z,14.33
2018-10-03T14:51:51.495Z,14.33
2018-10-03T14:53:00.137Z,14.4